Aviation Digital Data Service (ADDS)

Output produced by TAFs form (1958 UTC 29 July 2015)
found at http://www.aviationweather.gov/adds/tafs/
 
KGFL 291721Z 2918/3018 16008KT P6SM FEW060 SCT250 
     FM300100 VRB03KT P6SM FEW250 
     FM300800 VRB02KT 4SM BR SCT005 BKN040 
     FM301200 19005KT P6SM BKN050 
     FM301500 20008KT P6SM VCSH BKN050 OVC080